createdAt,value
2022-09-28T00:01:10.046Z,12.73
2022-09-28T00:06:16.868Z,12.52
2022-09-28T00:11:23.026Z,12.52
2022-09-28T00:16:31.262Z,12.32
2022-09-28T00:21:37.713Z,12.43
2022-09-28T00:26:43.907Z,12.25
2022-09-28T00:31:50.496Z,12.19
2022-09-28T00:36:54.640Z,11.95
2022-09-28T00:41:59.363Z,12.15
2022-09-28T00:47:10.264Z,12.19
2022-09-28T00:52:18.633Z,12.08
2022-09-28T00:57:24.192Z,12.15
2022-09-28T01:02:29.632Z,12.18
2022-09-28T01:07:35.042Z,12.33
2022-09-28T01:12:39.291Z,12.37
2022-09-28T01:17:59.297Z,12.05
2022-09-28T01:23:33.659Z,12.08
2022-09-28T01:28:40.634Z,12.03
2022-09-28T01:33:48.940Z,11.70
2022-09-28T01:38:56.701Z,11.62
2022-09-28T01:44:06.104Z,11.24
2022-09-28T01:49:14.934Z,11.12
2022-09-28T01:54:24.841Z,11.32
2022-09-28T01:59:32.318Z,11.18
2022-09-28T02:04:42.969Z,11.38
2022-09-28T02:09:50.604Z,11.19
2022-09-28T02:15:02.242Z,11.27
2022-09-28T02:20:09.397Z,11.47
2022-09-28T02:25:21.724Z,11.05
2022-09-28T02:30:27.603Z,11.24
2022-09-28T02:35:31.560Z,11.39
2022-09-28T02:40:38.716Z,11.45
2022-09-28T02:46:05.491Z,11.28
2022-09-28T02:51:28.375Z,11.24
2022-09-28T02:56:52.817Z,11.38
2022-09-28T03:02:04.347Z,10.96
2022-09-28T03:07:18.346Z,11.30
2022-09-28T03:12:25.787Z,11.20
2022-09-28T03:17:31.395Z,11.28
2022-09-28T03:22:35.783Z,10.95
2022-09-28T03:27:40.133Z,11.09
2022-09-28T03:32:47.328Z,10.96
2022-09-28T03:37:55.134Z,10.57
2022-09-28T03:43:01.626Z,10.65
2022-09-28T03:48:07.541Z,10.70
2022-09-28T03:53:11.907Z,10.58
2022-09-28T03:58:16.212Z,10.42
2022-09-28T04:03:21.946Z,10.58
2022-09-28T04:08:26.406Z,10.77
2022-09-28T04:13:32.258Z,10.92
2022-09-28T04:18:38.867Z,10.74
2022-09-28T04:23:42.891Z,10.81
2022-09-28T04:29:06.949Z,10.82
2022-09-28T04:34:14.752Z,10.72
2022-09-28T04:39:20.191Z,10.94
2022-09-28T04:44:27.589Z,10.92
2022-09-28T04:49:40.698Z,10.79
2022-09-28T04:54:47.203Z,10.78
2022-09-28T04:59:51.233Z,11.00
2022-09-28T05:04:58.934Z,10.82
2022-09-28T05:10:35.072Z,10.81
2022-09-28T05:15:39.914Z,10.90
2022-09-28T05:20:46.363Z,10.71
2022-09-28T05:25:51.055Z,11.13
2022-09-28T05:31:02.368Z,11.29
2022-09-28T05:36:27.992Z,11.55
2022-09-28T05:41:33.202Z,11.48
2022-09-28T05:46:37.717Z,11.67
2022-09-28T05:51:43.308Z,11.61
2022-09-28T05:56:47.285Z,12.12
2022-09-28T06:01:52.097Z,12.75
2022-09-28T06:06:57.728Z,13.24
2022-09-28T06:12:02.879Z,13.75
2022-09-28T06:17:15.257Z,14.04
2022-09-28T06:22:23.744Z,14.36
2022-09-28T06:27:36.628Z,14.40
2022-09-28T06:32:40.659Z,14.82
2022-09-28T06:37:47.589Z,15.37
2022-09-28T06:42:57.143Z,14.88
2022-09-28T06:48:19.555Z,15.25
2022-09-28T06:53:28.280Z,15.85
2022-09-28T06:58:35.393Z,17.13
2022-09-28T07:03:40.743Z,18.34
2022-09-28T07:09:23.508Z,19.33
2022-09-28T07:14:50.395Z,20.19
2022-09-28T07:20:00.186Z,20.49
2022-09-28T07:25:11.655Z,20.40
2022-09-28T07:30:46.125Z,21.59
2022-09-28T07:35:55.571Z,21.54
2022-09-28T07:41:17.256Z,22.05
2022-09-28T07:46:27.744Z,22.10
2022-09-28T07:51:40.667Z,22.11
2022-09-28T07:56:59.549Z,22.36
2022-09-28T08:02:12.004Z,23.05
2022-09-28T08:07:22.788Z,22.52
2022-09-28T08:12:39.104Z,22.38
2022-09-28T08:18:03.862Z,22.52
2022-09-28T08:23:11.938Z,23.36
2022-09-28T08:28:19.230Z,23.26
2022-09-28T08:33:24.847Z,23.57
2022-09-28T08:38:47.323Z,23.18
2022-09-28T08:44:24.327Z,23.96
2022-09-28T08:49:50.109Z,23.50
2022-09-28T08:55:28.180Z,24.08
2022-09-28T09:00:40.982Z,23.41
2022-09-28T09:06:00.351Z,24.72
2022-09-28T09:11:52.634Z,24.67
2022-09-28T09:17:14.186Z,25.32
2022-09-28T09:22:48.324Z,24.59
2022-09-28T09:28:13.002Z,24.74
2022-09-28T09:33:54.732Z,25.77
2022-09-28T09:39:35.504Z,25.37
2022-09-28T09:45:17.471Z,25.75
2022-09-28T09:50:50.392Z,25.83
2022-09-28T09:55:58.528Z,26.37
2022-09-28T10:01:14.596Z,27.40
2022-09-28T10:06:40.448Z,26.82
2022-09-28T10:11:49.724Z,26.88
2022-09-28T10:16:56.812Z,27.62
2022-09-28T10:22:37.965Z,27.70
2022-09-28T10:27:52.757Z,27.35
2022-09-28T10:32:59.587Z,26.93
2022-09-28T10:38:20.582Z,27.45
2022-09-28T10:43:30.420Z,27.89
2022-09-28T10:48:50.385Z,28.14
2022-09-28T10:54:02.093Z,28.05
2022-09-28T10:59:39.707Z,27.57
2022-09-28T11:05:22.480Z,27.10
2022-09-28T11:10:34.693Z,27.13
2022-09-28T11:15:52.085Z,26.75
2022-09-28T11:21:16.128Z,27.17
2022-09-28T11:26:42.883Z,27.60
2022-09-28T11:31:54.398Z,28.13
2022-09-28T11:37:23.708Z,28.23
2022-09-28T11:42:39.776Z,27.91
2022-09-28T11:47:58.100Z,28.05
2022-09-28T11:53:14.476Z,27.88
2022-09-28T11:58:30.931Z,27.03
2022-09-28T12:03:43.161Z,27.22
2022-09-28T12:08:54.975Z,26.42
2022-09-28T12:14:30.744Z,25.43
2022-09-28T12:19:40.254Z,26.28
2022-09-28T12:24:49.108Z,26.29
2022-09-28T12:30:04.466Z,25.08
2022-09-28T12:35:26.186Z,24.54
2022-09-28T12:40:40.168Z,24.23
2022-09-28T12:46:20.020Z,24.87
2022-09-28T12:51:38.444Z,25.89
2022-09-28T12:56:47.795Z,26.36
2022-09-28T13:02:27.239Z,26.49
2022-09-28T13:07:37.954Z,26.88
2022-09-28T13:12:57.351Z,26.58
2022-09-28T13:18:09.871Z,26.20
2022-09-28T13:23:19.931Z,25.78
2022-09-28T13:28:27.504Z,25.16
2022-09-28T13:33:37.238Z,24.76
2022-09-28T13:38:52.454Z,23.97
2022-09-28T13:44:22.261Z,23.73
2022-09-28T13:49:39.791Z,23.64
2022-09-28T13:54:54.163Z,23.52
2022-09-28T14:00:16.640Z,23.12
2022-09-28T14:05:48.063Z,22.79
2022-09-28T14:10:54.135Z,22.72
2022-09-28T14:16:24.906Z,22.86
2022-09-28T14:22:01.474Z,22.64
2022-09-28T14:27:44.307Z,22.60
2022-09-28T14:32:58.416Z,22.62
2022-09-28T14:38:24.821Z,22.28
2022-09-28T14:43:36.724Z,22.27
2022-09-28T14:48:46.031Z,22.07
2022-09-28T14:53:53.620Z,21.84
2022-09-28T14:58:59.342Z,21.46
2022-09-28T15:04:06.009Z,21.63
2022-09-28T15:09:29.672Z,21.54
2022-09-28T15:14:36.789Z,21.33
2022-09-28T15:19:52.830Z,21.32
2022-09-28T15:25:02.466Z,21.33
2022-09-28T15:30:22.620Z,20.84
2022-09-28T15:35:30.355Z,20.89
2022-09-28T15:40:39.798Z,20.87
2022-09-28T15:45:45.130Z,20.67
2022-09-28T15:51:01.241Z,20.57
2022-09-28T15:56:10.291Z,20.50
2022-09-28T16:01:36.081Z,20.30
2022-09-28T16:06:43.435Z,20.03
2022-09-28T16:11:51.463Z,19.92
2022-09-28T16:16:57.168Z,19.72
2022-09-28T16:22:03.975Z,19.67
2022-09-28T16:27:25.213Z,19.53
2022-09-28T16:32:41.865Z,19.40
2022-09-28T16:37:49.403Z,19.01
2022-09-28T16:42:58.435Z,18.65
2022-09-28T16:48:04.352Z,18.58
2022-09-28T16:53:33.535Z,18.56
2022-09-28T16:58:39.262Z,18.20
2022-09-28T17:03:47.024Z,17.65
2022-09-28T17:08:52.721Z,17.83
2022-09-28T17:13:59.147Z,17.94
2022-09-28T17:19:03.245Z,17.65
2022-09-28T17:24:08.205Z,17.44
2022-09-28T17:29:14.924Z,17.33
2022-09-28T17:34:19.974Z,17.25
2022-09-28T17:39:25.385Z,17.20
2022-09-28T17:44:30.826Z,17.20
2022-09-28T17:49:34.882Z,16.65
2022-09-28T17:54:38.870Z,16.70
2022-09-28T17:59:45.905Z,16.78
2022-09-28T18:04:52.492Z,16.58
2022-09-28T18:09:57.005Z,16.57
2022-09-28T18:15:03.844Z,16.62
2022-09-28T18:20:10.825Z,16.80
2022-09-28T18:25:15.070Z,16.74
2022-09-28T18:30:21.694Z,16.53
2022-09-28T18:35:27.711Z,16.75
2022-09-28T18:40:32.283Z,16.66
2022-09-28T18:45:38.598Z,16.64
2022-09-28T18:50:43.882Z,16.58
2022-09-28T18:55:47.985Z,16.06
2022-09-28T19:01:03.988Z,16.02
2022-09-28T19:06:18.125Z,16.02
2022-09-28T19:11:22.763Z,16.38
2022-09-28T19:16:30.362Z,16.32
2022-09-28T19:21:35.991Z,16.32
2022-09-28T19:26:42.226Z,16.28
2022-09-28T19:31:47.891Z,16.38
2022-09-28T19:36:52.364Z,16.48
2022-09-28T19:41:59.466Z,16.44
2022-09-28T19:47:10.037Z,16.00
2022-09-28T19:52:17.252Z,15.79
2022-09-28T19:57:21.486Z,15.89
2022-09-28T20:02:27.341Z,16.04
2022-09-28T20:07:33.475Z,16.16
2022-09-28T20:12:38.325Z,15.99
2022-09-28T20:17:44.584Z,16.21
2022-09-28T20:22:48.654Z,15.97
2022-09-28T20:27:52.617Z,15.88
2022-09-28T20:32:58.203Z,16.07
2022-09-28T20:38:08.105Z,15.95
2022-09-28T20:43:12.274Z,15.61
2022-09-28T20:48:17.602Z,15.23
2022-09-28T20:53:21.502Z,15.47
2022-09-28T20:58:25.465Z,15.41
2022-09-28T21:03:31.689Z,15.05
2022-09-28T21:08:35.834Z,15.12
2022-09-28T21:13:42.983Z,14.98
2022-09-28T21:18:48.621Z,14.76
2022-09-28T21:23:54.404Z,14.85
2022-09-28T21:28:59.949Z,15.08
2022-09-28T21:34:06.068Z,15.28
2022-09-28T21:39:11.258Z,15.27
2022-09-28T21:44:15.797Z,15.08
2022-09-28T21:49:21.166Z,14.97
2022-09-28T21:54:25.773Z,14.80
2022-09-28T21:59:29.975Z,15.13
2022-09-28T22:04:36.601Z,14.67
2022-09-28T22:09:41.237Z,14.36
2022-09-28T22:14:45.132Z,14.58
2022-09-28T22:19:50.477Z,14.54
2022-09-28T22:24:55.095Z,14.58
2022-09-28T22:29:59.230Z,14.51
2022-09-28T22:35:04.932Z,14.29
2022-09-28T22:40:11.750Z,14.10
2022-09-28T22:45:15.655Z,13.72
2022-09-28T22:50:20.982Z,13.93
2022-09-28T22:55:24.867Z,13.59
2022-09-28T23:00:30.739Z,13.85
2022-09-28T23:05:36.232Z,13.88
2022-09-28T23:10:40.818Z,13.84
2022-09-28T23:15:44.922Z,13.68
2022-09-28T23:20:55.407Z,13.53
2022-09-28T23:26:00.027Z,13.43
2022-09-28T23:31:09.352Z,13.63
2022-09-28T23:36:16.775Z,13.65
2022-09-28T23:41:20.816Z,13.66
2022-09-28T23:46:24.789Z,13.66
2022-09-28T23:51:30.074Z,13.22
2022-09-28T23:56:35.548Z,13.06
